Time;durP1;ratioP1;P1;durP2;ratioP2;P2;SDS_P1;SDS_P2;PMS_P1;PMS_P2;Temp;Humidity;BMP_temperature;BMP_pressure;BME280_temperature;BME280_humidity;BME280_pressure;Samples;Min_cycle;Max_cycle;Signal;HPM_P1;HPM_P2
2022/06/24 00:02:10;;;;;;;4.87;4.43;;;;;;;16.94;78.06;101540.91;5059275;28;20076;-68
2022/06/24 00:04:37;;;;;;;7.53;5.03;;;;;;;16.63;77.48;101486.44;5058562;28;20049;-68
2022/06/24 00:07:14;;;;;;;8.10;5.43;;;;;;;16.87;77.78;101526.53;5054146;28;20045;-67
2022/06/24 00:09:40;;;;;;;5.60;4.70;;;;;;;16.83;78.12;101514.50;5036932;28;20036;-66
2022/06/24 00:12:10;;;;;;;7.23;5.43;;;;;;;16.90;78.32;101538.78;5053221;28;20047;-68
2022/06/24 00:14:37;;;;;;;9.63;5.07;;;;;;;16.85;78.73;101543.91;5054899;28;20033;-65
2022/06/24 00:17:05;;;;;;;6.00;5.20;;;;;;;16.81;78.80;101548.81;5053291;28;20124;-67
2022/06/24 00:19:34;;;;;;;13.05;6.22;;;;;;;16.70;78.96;101536.63;5054525;28;20025;-66
2022/06/24 00:22:11;;;;;;;9.48;5.97;;;;;;;16.77;78.93;101550.19;5054483;28;20420;-66
2022/06/24 00:24:39;;;;;;;5.70;5.07;;;;;;;16.71;79.62;101549.06;5054640;28;20037;-66
2022/06/24 00:27:17;;;;;;;12.50;5.30;;;;;;;16.33;79.59;101483.69;5054721;28;20087;-66
2022/06/24 00:29:44;;;;;;;11.47;6.30;;;;;;;16.71;79.70;101559.81;5054601;28;20131;-67
2022/06/24 00:32:10;;;;;;;7.33;5.30;;;;;;;16.68;79.11;101548.59;5054242;28;20045;-65
2022/06/24 00:34:37;;;;;;;7.17;5.10;;;;;;;16.66;79.87;101551.47;5054625;28;20044;-66
2022/06/24 00:37:26;;;;;;;7.97;5.77;;;;;;;16.66;79.63;101551.47;5053211;28;20037;-67
2022/06/24 00:39:58;;;;;;;12.80;5.77;;;;;;;16.57;79.78;101540.94;5054599;28;20040;-66
2022/06/24 00:42:24;;;;;;;6.07;5.13;;;;;;;16.60;79.98;101554.03;5053332;28;20041;-68
2022/06/24 00:45:01;;;;;;;6.63;5.37;;;;;;;16.60;80.63;101562.09;5054519;28;20033;-66
2022/06/24 00:47:31;;;;;;;9.80;5.47;;;;;;;16.53;80.25;101558.47;5054328;28;20439;-64
2022/06/24 00:50:00;;;;;;;5.87;5.13;;;;;;;16.60;80.60;101570.16;5054354;28;20063;-65
2022/06/24 00:52:25;;;;;;;7.17;5.50;;;;;;;16.54;80.50;101565.53;5054272;28;20519;-68
2022/06/24 00:54:51;;;;;;;7.90;5.30;;;;;;;16.47;80.90;101556.50;5053959;28;20036;-66
2022/06/24 00:57:17;;;;;;;7.67;5.60;;;;;;;16.45;81.32;101558.53;5054043;28;20037;-64
2022/06/24 00:59:45;;;;;;;8.23;5.43;;;;;;;16.51;80.70;101557.81;5053594;28;20033;-64
2022/06/24 01:02:11;;;;;;;6.43;5.47;;;;;;;16.48;80.69;101574.28;5053880;28;20040;-67
2022/06/24 01:04:37;;;;;;;10.80;5.83;;;;;;;16.43;81.32;101562.22;5053907;28;20064;-64
2022/06/24 01:07:03;;;;;;;7.90;5.27;;;;;;;16.38;81.71;101564.63;5053744;28;20049;-69
2022/06/24 01:09:29;;;;;;;8.03;5.67;;;;;;;16.42;81.23;101575.84;5052605;28;20035;-66
2022/06/24 01:11:54;;;;;;;9.37;7.03;;;;;;;16.31;81.95;101565.53;5052487;28;20044;-64
2022/06/24 01:14:20;;;;;;;6.10;5.43;;;;;;;16.29;82.04;101568.41;5052397;28;20037;-65
2022/06/24 01:16:46;;;;;;;6.83;5.53;;;;;;;16.36;81.89;101580.09;5053841;28;20040;-67
2022/06/24 01:19:13;;;;;;;6.30;4.80;;;;;;;16.37;82.47;101568.34;5053686;28;20404;-69
2022/06/24 01:21:40;;;;;;;9.48;5.50;;;;;;;16.40;81.94;101578.72;5053636;28;20119;-64
2022/06/24 01:24:09;;;;;;;6.73;5.33;;;;;;;16.31;82.37;101562.84;5053421;28;20484;-65
2022/06/24 01:26:38;;;;;;;;;;;;;;;16.44;81.53;101573.81;5052492;28;20029;-66
2022/06/24 01:29:04;;;;;;;10.13;6.07;;;;;;;16.42;82.30;101571.31;5053231;28;19916;-64
2022/06/24 01:31:30;;;;;;;7.90;6.37;;;;;;;16.39;82.33;101563.63;5053296;28;20036;-68
2022/06/24 01:33:56;;;;;;;7.30;5.67;;;;;;;16.38;83.24;101561.09;5053503;28;20044;-65
2022/06/24 01:36:23;;;;;;;8.27;5.90;;;;;;;16.41;83.10;101580.41;5053445;28;20064;-66
2022/06/24 01:38:48;;;;;;;5.90;5.30;;;;;;;16.34;82.99;101557.13;5053164;28;20488;-66
2022/06/24 01:41:14;;;;;;;6.47;5.57;;;;;;;16.26;83.51;101543.75;5052961;28;20040;-65
2022/06/24 01:43:39;;;;;;;9.43;5.83;;;;;;;16.33;83.52;101561.66;5051764;28;20063;-67
2022/06/24 01:46:06;;;;;;;7.00;5.97;;;;;;;16.31;83.81;101552.09;5053207;28;20052;-67
2022/06/24 01:48:32;;;;;;;7.93;5.63;;;;;;;16.33;83.64;101555.44;5053115;28;20036;-68
2022/06/24 01:50:57;;;;;;;9.83;6.23;;;;;;;16.38;83.53;101564.63;5052901;28;20036;-65
2022/06/24 01:53:23;;;;;;;12.60;6.27;;;;;;;16.42;83.70;101565.94;5053062;28;20033;-65
2022/06/24 01:55:49;;;;;;;8.60;6.50;;;;;;;16.37;83.59;101556.75;5052690;28;20401;-63
2022/06/24 01:58:14;;;;;;;9.00;6.47;;;;;;;16.58;83.56;101581.09;5052587;28;20076;-66
2022/06/24 02:00:40;;;;;;;10.40;7.40;;;;;;;16.57;83.62;101571.38;5052837;28;20538;-68
2022/06/24 02:03:11;;;;;;;6.70;5.77;;;;;;;16.58;83.83;101581.09;5052477;28;20052;-66
2022/06/24 02:05:40;;;;;;;7.00;6.00;;;;;;;16.29;83.42;101536.16;5052412;28;20579;-65
2022/06/24 02:08:06;;;;;;;6.33;5.20;;;;;;;16.59;83.36;101581.94;5051253;28;20044;-63
2022/06/24 02:13:28;;;;;;;6.97;6.27;;;;;;;16.55;83.82;101581.47;5052732;28;20044;-67
2022/06/24 02:16:01;;;;;;;12.03;6.37;;;;;;;16.53;83.53;101583.50;5052369;28;21046;-68
2022/06/24 02:18:28;;;;;;;9.77;6.30;;;;;;;16.56;83.37;101576.94;5052872;28;20056;-64
2022/06/24 02:20:55;;;;;;;6.97;5.83;;;;;;;16.57;83.36;101568.69;5052515;28;20071;-64
2022/06/24 02:23:21;;;;;;;9.63;5.80;;;;;;;16.55;82.56;101567.19;5052204;28;20063;-63
2022/06/24 02:25:48;;;;;;;6.80;5.20;;;;;;;16.62;81.62;101568.13;5052302;28;20493;-64
2022/06/24 02:28:14;;;;;;;6.27;5.57;;;;;;;16.69;81.30;101574.47;5052282;28;20033;-66
2022/06/24 02:30:41;;;;;;;7.30;5.20;;;;;;;16.67;81.44;101557.69;5051672;28;20132;-65
2022/06/24 02:33:08;;;;;;;12.10;7.60;;;;;;;16.89;81.11;101589.06;5051855;28;20470;-66
2022/06/24 02:35:34;;;;;;;7.43;4.60;;;;;;;16.91;80.90;101591.56;5051939;28;20045;-64
2022/06/24 02:37:59;;;;;;;5.77;3.60;;;;;;;16.92;79.38;101594.09;5050819;28;20397;-64
2022/06/24 02:43:16;;;;;;;9.83;4.83;;;;;;;16.90;78.75;101579.16;5051900;28;20570;-68
2022/06/24 02:45:46;;;;;;;7.37;4.80;;;;;;;16.91;78.88;101581.66;5052110;28;20500;-65
2022/06/24 02:48:13;;;;;;;5.13;3.87;;;;;;;16.95;78.19;101580.25;5051800;28;20037;-67
2022/06/24 02:50:41;;;;;;;6.17;5.00;;;;;;;17.11;78.31;101602.66;5051819;28;20044;-65
2022/06/24 02:53:07;;;;;;;5.68;4.15;;;;;;;17.44;76.67;101550.06;5050753;28;20037;-64
2022/06/24 02:55:32;;;;;;;4.70;4.30;;;;;;;19.70;70.24;101603.06;5051973;28;20051;-66
2022/06/24 02:57:58;;;;;;;7.70;4.30;;;;;;;22.00;62.27;101599.56;5051926;28;20040;-63
2022/06/24 03:00:23;;;;;;;4.13;3.70;;;;;;;23.87;56.31;101592.97;5051776;28;20135;-66
2022/06/24 03:02:51;;;;;;;3.65;3.10;;;;;;;25.32;51.53;101605.03;5051371;28;20052;-66
2022/06/24 03:05:18;;;;;;;3.47;3.17;;;;;;;26.26;47.80;101604.72;5052330;28;20048;-68
2022/06/24 03:07:44;;;;;;;6.35;3.30;;;;;;;26.97;46.23;101605.06;5051978;28;20115;-69
2022/06/24 03:10:09;;;;;;;3.58;3.10;;;;;;;27.34;44.61;101599.88;5050491;28;20551;-67
2022/06/24 03:12:36;;;;;;;3.63;2.63;;;;;;;27.65;44.09;101612.88;5051749;28;20036;-64
2022/06/24 03:15:02;;;;;;;3.67;2.95;;;;;;;27.86;43.73;101615.84;5051908;28;20037;-67
2022/06/24 03:17:29;;;;;;;5.45;2.63;;;;;;;27.92;43.12;101612.91;5051961;28;20037;-63
2022/06/24 03:19:54;;;;;;;3.50;2.35;;;;;;;27.88;42.90;101606.28;5051790;28;20511;-65
2022/06/24 03:22:20;;;;;;;5.30;2.58;;;;;;;27.81;42.77;101616.63;5051773;28;20025;-68
2022/06/24 03:24:46;;;;;;;3.65;2.28;;;;;;;27.66;43.33;101619.16;5051643;28;20555;-67
2022/06/24 03:27:11;;;;;;;4.05;2.95;;;;;;;27.81;42.67;101610.31;5050329;28;20492;-65
2022/06/24 03:29:37;;;;;;;3.92;2.65;;;;;;;27.96;42.81;101614.03;5051563;28;20075;-64
2022/06/24 03:32:03;;;;;;;4.28;2.70;;;;;;;28.26;41.90;101619.00;5049998;28;20095;-68
2022/06/24 03:34:28;;;;;;;5.13;2.75;;;;;;;28.22;42.04;101617.03;5051256;28;20074;-65
2022/06/24 03:36:55;;;;;;;2.58;2.30;;;;;;;27.92;42.55;101607.44;5051564;28;20048;-65
2022/06/24 03:39:21;;;;;;;4.38;2.28;;;;;;;27.65;42.58;101617.50;5051531;28;20132;-68
2022/06/24 03:41:46;;;;;;;3.30;2.30;;;;;;;27.76;42.81;101620.13;5051789;28;20107;-67
2022/06/24 03:44:12;;;;;;;3.67;2.55;;;;;;;27.98;42.20;101620.06;5055642;28;20059;-67
2022/06/24 03:46:37;;;;;;;3.65;2.42;;;;;;;28.07;41.58;101626.75;5055697;28;20132;-65
2022/06/24 03:49:03;;;;;;;5.25;2.53;;;;;;;28.06;41.54;101625.13;5055520;28;20040;-64
2022/06/24 03:51:28;;;;;;;4.03;3.03;;;;;;;28.30;41.18;101625.63;5054848;28;20112;-68
2022/06/24 03:53:54;;;;;;;4.07;2.15;;;;;;;28.39;41.08;101628.75;5020677;28;20033;-64
2022/06/24 03:56:20;;;;;;;3.88;2.00;;;;;;;28.34;41.11;101621.31;5055325;28;20059;-68
2022/06/24 03:58:45;;;;;;;6.38;2.72;;;;;;;28.24;41.34;101634.88;5054883;28;20032;-66
2022/06/24 04:01:11;;;;;;;5.47;2.00;;;;;;;28.43;40.71;101635.34;5054959;28;20032;-65
2022/06/24 04:03:37;;;;;;;3.30;2.03;;;;;;;28.05;41.19;101590.59;5053537;28;20551;-64
2022/06/24 04:06:28;;;;;;;4.13;2.28;;;;;;;28.33;40.86;101616.88;5055252;28;20043;-66
2022/06/24 04:08:55;;;;;;;2.67;2.30;;;;;;;28.31;40.59;101621.78;5055025;28;20048;-63
2022/06/24 04:11:21;;;;;;;2.45;2.25;;;;;;;28.31;40.85;101637.41;5054687;28;20507;-67
2022/06/24 04:13:47;;;;;;;5.85;2.50;;;;;;;28.06;41.52;101611.41;5055589;28;20112;-66
2022/06/24 04:16:12;;;;;;;2.72;1.95;;;;;;;28.30;41.31;101638.50;5055238;28;20037;-65
2022/06/24 04:18:38;;;;;;;3.08;2.15;;;;;;;28.19;41.31;101636.72;5055211;28;20036;-65
2022/06/24 04:21:10;;;;;;;3.78;2.33;;;;;;;28.22;40.68;101628.81;5054796;28;20087;-66
2022/06/24 04:23:36;;;;;;;3.78;2.28;;;;;;;28.02;40.67;101601.22;5054799;28;20043;-64
2022/06/24 04:26:03;;;;;;;3.47;2.33;;;;;;;28.29;40.53;101626.72;5053406;28;20120;-67
2022/06/24 04:28:28;;;;;;;3.47;2.35;;;;;;;28.35;40.05;101638.56;5054516;28;20481;-66
2022/06/24 04:30:54;;;;;;;3.13;2.50;;;;;;;28.32;40.12;101622.63;5054516;28;20039;-65
2022/06/24 04:33:19;;;;;;;2.30;1.83;;;;;;;28.47;39.68;101602.75;5053108;28;20480;-65
2022/06/24 04:35:45;;;;;;;3.50;2.03;;;;;;;28.71;39.87;101649.81;5054243;28;20033;-65
2022/06/24 04:38:13;;;;;;;3.58;2.05;;;;;;;28.48;40.22;101649.09;5054156;28;20081;-63
2022/06/24 04:40:39;;;;;;;2.38;1.92;;;;;;;27.72;40.81;101640.84;5054098;28;20036;-67
2022/06/24 04:43:04;;;;;;;5.07;2.53;;;;;;;27.00;42.85;101651.06;5054323;28;20566;-67
2022/06/24 04:45:30;;;;;;;3.97;2.03;;;;;;;26.46;44.19;101658.91;5054488;28;20056;-67
2022/06/24 04:47:56;;;;;;;14.95;2.70;;;;;;;26.13;44.71;101646.81;5052746;28;20033;-64
2022/06/24 04:50:22;;;;;;;4.65;2.63;;;;;;;26.29;44.60;101652.53;5052960;28;20041;-65
2022/06/24 04:52:47;;;;;;;3.10;1.90;;;;;;;26.57;43.72;101613.44;5053527;28;20123;-65
2022/06/24 04:55:13;;;;;;;2.67;1.90;;;;;;;27.32;42.24;101656.72;5052635;28;20093;-67
2022/06/24 04:57:38;;;;;;;3.95;1.95;;;;;;;27.51;42.48;101662.75;5054079;28;20477;-64
2022/06/24 05:00:05;;;;;;;3.22;1.75;;;;;;;27.65;41.42;101658.56;5053961;28;20476;-64
2022/06/24 05:02:32;;;;;;;3.08;1.58;;;;;;;27.64;41.37;101665.94;5053533;28;20458;-67
2022/06/24 05:04:58;;;;;;;2.15;1.48;;;;;;;27.92;40.40;101673.13;5053936;28;20033;-66
2022/06/24 05:07:24;;;;;;;3.63;2.25;;;;;;;27.52;40.74;101634.31;5053801;28;20497;-67
2022/06/24 05:09:49;;;;;;;1.98;1.73;;;;;;;27.50;40.67;101661.09;5053681;28;20408;-67
2022/06/24 05:12:15;;;;;;;2.60;1.80;;;;;;;27.32;41.49;101630.22;5053828;28;20036;-66
2022/06/24 05:14:40;;;;;;;2.70;1.95;;;;;;;27.40;41.41;101673.53;5053907;28;20427;-66
2022/06/24 05:17:06;;;;;;;6.18;2.25;;;;;;;27.10;41.78;101659.41;5054046;28;20127;-68
2022/06/24 05:19:31;;;;;;;18.02;2.55;;;;;;;27.09;42.52;101676.91;5053850;28;20044;-64
2022/06/24 05:21:57;;;;;;;3.08;1.90;;;;;;;26.80;42.66;101682.44;5054090;28;20033;-66
2022/06/24 05:24:23;;;;;;;3.83;1.63;;;;;;;26.48;43.54;101673.97;5053234;28;20132;-67
2022/06/24 05:26:49;;;;;;;4.25;1.50;;;;;;;25.79;44.72;101675.06;5053624;28;20045;-67
2022/06/24 05:29:15;;;;;;;2.92;1.80;;;;;;;24.64;47.39;101673.75;5052273;28;20052;-64
2022/06/24 05:31:41;;;;;;;2.25;1.40;;;;;;;23.23;50.85;101665.03;5052902;28;20386;-65
2022/06/24 05:34:07;;;;;;;4.40;2.20;;;;;;;22.48;53.50;101689.44;5053062;28;20029;-68
2022/06/24 05:36:34;;;;;;;2.28;1.48;;;;;;;21.96;55.19;101675.06;5053106;28;20040;-66
2022/06/24 05:39:04;;;;;;;2.63;1.67;;;;;;;21.36;55.85;101639.22;5053129;28;20404;-66
2022/06/24 05:41:29;;;;;;;3.53;1.60;;;;;;;21.40;56.90;101680.28;5053066;28;20068;-68
2022/06/24 05:43:55;;;;;;;2.95;1.65;;;;;;;21.31;57.03;101682.38;5053027;28;20068;-67
2022/06/24 05:46:21;;;;;;;7.75;7.03;;;;;;;21.26;57.71;101684.88;5052933;28;20033;-67
2022/06/24 05:48:46;;;;;;;8.10;2.00;;;;;;;20.94;57.31;101659.47;5053040;28;20075;-65
2022/06/24 05:51:16;;;;;;;5.45;1.85;;;;;;;20.92;57.14;101677.78;5052826;28;20041;-66
2022/06/24 05:56:27;;;;;;;3.75;1.88;;;;;;;20.55;58.46;101693.59;5053188;28;20120;-64
2022/06/24 05:58:53;;;;;;;6.15;2.33;;;;;;;20.35;59.29;101680.00;5052713;28;20072;-67
2022/06/24 06:01:19;;;;;;;3.75;1.95;;;;;;;20.55;58.31;101714.41;5053002;28;20484;-65
2022/06/24 06:03:48;;;;;;;5.22;2.00;;;;;;;20.60;58.18;101707.34;5052446;28;20063;-66
2022/06/24 06:06:14;;;;;;;4.25;2.28;;;;;;;20.44;57.48;101685.22;5053193;28;20070;-65
2022/06/24 06:08:40;;;;;;;4.22;1.83;;;;;;;20.40;58.35;101691.06;5054329;28;20032;-67
2022/06/24 06:11:16;;;;;;;4.80;2.78;;;;;;;20.58;58.93;101709.44;5054381;28;20072;-68
2022/06/24 06:13:43;;;;;;;4.47;2.13;;;;;;;20.55;58.72;101709.84;5055434;28;20039;-67
2022/06/24 06:16:09;;;;;;;5.65;2.70;;;;;;;20.61;59.75;101711.72;5054353;28;20044;-69
2022/06/24 06:18:35;;;;;;;2.92;2.10;;;;;;;20.54;59.46;101713.59;5053974;28;20036;-66
2022/06/24 06:21:03;;;;;;;4.78;1.90;;;;;;;20.46;59.71;101711.03;5053596;28;20382;-67
2022/06/24 06:23:28;;;;;;;2.38;2.03;;;;;;;20.41;59.19;101689.19;5053334;28;20033;-66
2022/06/24 06:25:55;;;;;;;4.85;1.80;;;;;;;20.49;59.42;101705.22;5053308;28;20067;-65
2022/06/24 06:28:21;;;;;;;4.22;1.83;;;;;;;20.32;59.42;101687.69;5052548;28;20036;-65
2022/06/24 06:30:46;;;;;;;4.47;2.47;;;;;;;20.47;59.46;101717.28;5052212;28;20032;-66
2022/06/24 06:33:12;;;;;;;8.00;2.70;;;;;;;20.33;59.01;101689.34;5052159;28;20051;-69
2022/06/24 06:35:37;;;;;;;8.55;2.47;;;;;;;20.48;58.75;101697.31;5052332;28;20033;-66
2022/06/24 06:38:03;;;;;;;2.50;1.55;;;;;;;20.48;58.92;101710.84;5052270;28;20036;-67
2022/06/24 06:40:28;;;;;;;2.38;1.70;;;;;;;20.10;58.52;101662.66;5051280;28;20041;-65
2022/06/24 06:42:55;;;;;;;2.90;1.95;;;;;;;20.24;58.93;101704.06;5052160;28;20098;-65
2022/06/24 06:45:21;;;;;;;3.35;1.80;;;;;;;20.22;57.52;101679.09;5052100;28;20028;-68
2022/06/24 06:47:47;;;;;;;3.63;1.85;;;;;;;20.35;57.70;101704.34;5052217;28;20043;-68
2022/06/24 06:50:13;;;;;;;6.60;2.10;;;;;;;20.29;58.09;101693.50;5052127;28;20124;-67
2022/06/24 06:52:40;;;;;;;3.50;1.65;;;;;;;20.34;57.72;101685.59;5052347;28;20437;-66
2022/06/24 06:55:06;;;;;;;9.30;2.17;;;;;;;20.58;57.32;101697.78;5052044;28;20033;-67
2022/06/24 06:57:31;;;;;;;7.63;1.65;;;;;;;20.63;57.48;101701.50;5052250;28;20047;-64
2022/06/24 06:59:57;;;;;;;3.72;1.40;;;;;;;20.58;56.56;101690.47;5052044;28;20033;-66
2022/06/24 07:02:23;;;;;;;4.70;1.92;;;;;;;20.66;55.86;101698.41;5051564;28;20052;-68
2022/06/24 07:04:49;;;;;;;4.47;1.90;;;;;;;20.63;56.45;101701.50;5051950;28;20497;-68
2022/06/24 07:07:15;;;;;;;2.33;1.40;;;;;;;20.50;56.23;101679.81;5050709;28;20079;-66
2022/06/24 07:09:40;;;;;;;2.65;1.30;;;;;;;20.43;56.35;101684.41;5050667;28;20063;-67
2022/06/24 07:12:06;;;;;;;5.03;1.30;;;;;;;20.50;56.02;101698.78;5051776;28;20128;-67
2022/06/24 07:14:32;;;;;;;4.22;1.40;;;;;;;20.47;55.55;101682.13;5051634;28;20047;-67
2022/06/24 07:17:00;;;;;;;5.00;1.85;;;;;;;20.47;55.85;101707.31;5055619;28;20071;-69
2022/06/24 07:19:26;;;;;;;6.25;2.03;;;;;;;20.42;56.65;101704.38;5038284;28;20061;-66
2022/06/24 07:21:52;;;;;;;8.57;2.10;;;;;;;20.50;56.42;101701.47;5055823;28;20064;-67
2022/06/24 07:24:17;;;;;;;2.22;1.33;;;;;;;20.28;56.08;101662.09;5055583;28;20036;-66
2022/06/24 07:26:43;;;;;;;5.68;2.00;;;;;;;20.47;57.77;101682.13;5055815;28;20045;-67
2022/06/24 07:29:08;;;;;;;3.83;2.20;;;;;;;20.56;56.75;101689.03;5055629;28;20033;-67
2022/06/24 07:31:35;;;;;;;9.07;4.43;;;;;;;20.67;57.24;101710.06;5055354;28;20079;-67
2022/06/24 07:34:02;;;;;;;8.02;2.60;;;;;;;20.44;56.89;101686.06;5054321;28;20086;-68
2022/06/24 07:36:28;;;;;;;9.75;3.33;;;;;;;20.53;57.74;101698.38;5055504;28;20118;-67
2022/06/24 07:38:53;;;;;;;9.80;3.58;;;;;;;20.68;57.86;101717.97;5055337;28;20068;-66
2022/06/24 07:41:23;;;;;;;4.70;3.22;;;;;;;20.55;57.98;101707.13;5055226;28;20037;-66
2022/06/24 07:43:49;;;;;;;12.15;3.70;;;;;;;20.59;58.64;101716.50;5053952;28;20033;-69
2022/06/24 07:46:14;;;;;;;7.85;3.58;;;;;;;20.44;59.27;101680.66;5054923;28;20109;-66
2022/06/24 07:48:40;;;;;;;11.80;5.15;;;;;;;20.55;59.30;101696.31;5055014;28;20033;-67
2022/06/24 07:51:16;;;;;;;7.35;2.90;;;;;;;20.73;59.02;101723.59;5055058;28;20052;-67
2022/06/24 07:53:46;;;;;;;12.90;3.60;;;;;;;20.63;59.76;101712.34;5037239;28;20029;-67
2022/06/24 07:58:57;;;;;;;7.70;3.67;;;;;;;20.70;59.50;101707.75;5054871;28;20046;-68
2022/06/24 08:01:22;;;;;;;13.00;3.55;;;;;;;20.76;58.25;101716.09;5054934;28;20416;-64
2022/06/24 08:03:49;;;;;;;5.60;3.35;;;;;;;20.77;57.35;101728.59;5054798;28;20063;-66
2022/06/24 08:06:19;;;;;;;7.20;3.00;;;;;;;20.73;58.04;101722.75;5054686;28;20056;-65
2022/06/24 08:08:44;;;;;;;17.58;3.63;;;;;;;20.73;58.15;101723.59;5055062;28;20056;-67
2022/06/24 08:11:10;;;;;;;10.48;2.90;;;;;;;20.79;57.60;101715.69;5054622;28;20033;-66
2022/06/24 08:13:36;;;;;;;7.57;3.90;;;;;;;20.81;58.81;101727.13;5054865;28;20048;-64
2022/06/24 08:16:01;;;;;;;7.05;3.00;;;;;;;20.90;59.37;101734.03;5054914;28;20531;-65
2022/06/24 08:18:27;;;;;;;4.75;2.85;;;;;;;20.66;58.30;101687.56;5054800;28;20048;-66
2022/06/24 08:20:53;;;;;;;5.35;3.05;;;;;;;20.97;59.02;101729.44;5055482;28;20072;-66
2022/06/24 08:23:19;;;;;;;5.85;3.58;;;;;;;20.95;58.15;101715.28;5053893;28;20412;-67
2022/06/24 08:25:44;;;;;;;8.05;3.15;;;;;;;20.96;57.54;101722.38;5054652;28;20052;-66
2022/06/24 08:28:10;;;;;;;17.90;9.95;;;;;;;20.98;58.07;101725.69;5053717;28;20044;-66
2022/06/24 08:30:35;;;;;;;4.03;2.92;;;;;;;21.03;58.04;101726.75;5054807;28;20037;-66
2022/06/24 08:33:02;;;;;;;9.77;3.20;;;;;;;20.98;57.74;101726.53;5054737;28;20120;-66
2022/06/24 08:35:28;;;;;;;11.15;3.13;;;;;;;20.98;57.99;101714.88;5054526;28;20124;-68
2022/06/24 08:37:54;;;;;;;7.30;3.80;;;;;;;21.10;57.87;101737.56;5054537;28;20142;-65
2022/06/24 08:40:21;;;;;;;14.45;3.40;;;;;;;20.98;58.14;101731.13;5052875;28;20033;-64
2022/06/24 08:42:52;;;;;;;6.85;3.13;;;;;;;21.01;58.51;101733.41;5054046;28;20041;-67
2022/06/24 08:45:18;;;;;;;5.75;2.90;;;;;;;20.90;58.70;101701.53;5054336;28;20044;-67
2022/06/24 08:47:45;;;;;;;4.72;2.67;;;;;;;21.09;57.66;101738.59;5052992;28;20037;-66
2022/06/24 08:50:12;;;;;;;6.00;3.20;;;;;;;20.95;58.55;101721.53;5053854;28;20060;-64
2022/06/24 08:52:45;;;;;;;8.43;3.53;;;;;;;21.02;58.16;101716.13;5053987;28;20052;-64
2022/06/24 08:55:18;;;;;;;6.80;3.28;;;;;;;21.14;57.76;101724.47;5053134;28;20091;-65
2022/06/24 08:57:47;;;;;;;4.47;3.08;;;;;;;21.11;58.24;101711.34;5054309;28;20036;-64
2022/06/24 09:00:14;;;;;;;10.63;3.85;;;;;;;21.13;57.41;101707.38;5053933;28;20036;-65
2022/06/24 09:02:41;;;;;;;8.15;3.85;;;;;;;21.14;57.80;101714.47;5053706;28;20507;-65
2022/06/24 09:05:13;;;;;;;9.17;3.50;;;;;;;21.15;57.31;101702.59;5053912;28;20099;-66
2022/06/24 09:07:39;;;;;;;8.13;2.65;;;;;;;21.30;57.38;101719.47;5053796;28;20040;-67
2022/06/24 09:10:09;;;;;;;4.30;2.97;;;;;;;21.25;56.85;101710.31;5053873;28;20037;-64
2022/06/24 09:12:38;;;;;;;4.90;2.10;;;;;;;21.31;56.44;101704.03;5053699;28;20090;-65
2022/06/24 09:15:06;;;;;;;7.10;2.50;;;;;;;21.38;57.17;101704.03;5053534;28;20045;-64
2022/06/24 09:17:32;;;;;;;5.00;2.95;;;;;;;21.47;56.27;101708.19;5053614;28;20501;-65
2022/06/24 09:20:28;;;;;;;5.95;3.22;;;;;;;21.50;55.22;101703.19;5053356;28;20044;-67
2022/06/24 09:23:01;;;;;;;11.10;3.03;;;;;;;21.57;56.29;101708.59;5053534;28;20041;-67
2022/06/24 09:25:27;;;;;;;4.47;2.40;;;;;;;21.49;55.64;101695.28;5053207;28;20485;-67
2022/06/24 09:27:52;;;;;;;3.25;2.65;;;;;;;21.62;54.37;101717.75;5053321;28;20048;-64
2022/06/24 09:30:18;;;;;;;5.50;2.30;;;;;;;21.62;55.14;101703.34;5053174;28;20408;-66
2022/06/24 09:32:54;;;;;;;5.40;2.78;;;;;;;21.77;56.58;101713.97;5053351;28;20157;-64
2022/06/24 09:35:21;;;;;;;4.82;3.20;;;;;;;21.71;55.43;101698.56;5051935;28;20040;-68
2022/06/24 09:37:49;;;;;;;13.88;3.45;;;;;;;21.76;55.98;101707.72;5053007;28;20103;-65
2022/06/24 09:40:18;;;;;;;6.65;3.17;;;;;;;21.87;55.90;101703.47;5053090;28;20071;-67
2022/06/24 09:42:55;;;;;;;8.00;2.97;;;;;;;21.90;56.56;101703.88;5051895;28;20079;-67
2022/06/24 09:45:25;;;;;;;7.43;3.95;;;;;;;21.93;56.23;101700.75;5053080;28;20041;-66
2022/06/24 09:47:52;;;;;;;10.18;3.35;;;;;;;21.85;55.33;101701.00;5052827;28;20427;-67
2022/06/24 09:50:19;;;;;;;7.70;3.42;;;;;;;21.63;55.27;101669.78;5053106;28;20043;-66
2022/06/24 09:52:45;;;;;;;5.15;2.80;;;;;;;21.79;55.22;101701.03;5053023;28;20442;-66
2022/06/24 09:55:12;;;;;;;7.93;3.08;;;;;;;21.71;56.32;101701.25;5051620;28;20136;-65
2022/06/24 09:57:40;;;;;;;6.78;2.58;;;;;;;21.79;55.82;101712.69;5052787;28;20043;-66
2022/06/24 10:02:53;;;;;;;5.63;3.03;;;;;;;21.80;55.17;101708.94;5052366;28;19921;-70
2022/06/24 10:05:20;;;;;;;2.72;2.28;;;;;;;21.77;55.41;101709.38;5052552;28;20037;-66
2022/06/24 10:07:48;;;;;;;3.60;2.75;;;;;;;21.75;55.71;101706.03;5052404;28;20041;-67
2022/06/24 10:10:16;;;;;;;9.65;3.35;;;;;;;21.84;55.75;101710.16;5051245;28;20033;-66
2022/06/24 10:12:48;;;;;;;6.35;2.47;;;;;;;21.92;55.65;101707.22;5052763;28;20412;-65
2022/06/24 10:15:17;;;;;;;7.10;2.67;;;;;;;21.89;54.73;101701.38;5052932;28;20040;-66
2022/06/24 10:17:45;;;;;;;4.57;3.28;;;;;;;21.85;55.17;101690.16;5052157;28;20478;-65
2022/06/24 10:20:13;;;;;;;3.40;3.05;;;;;;;21.81;54.77;101672.66;5051131;28;20385;-67
2022/06/24 10:22:46;;;;;;;8.60;2.10;;;;;;;22.01;54.49;101701.56;5052388;28;20037;-65
2022/06/24 10:25:40;;;;;;;7.32;3.25;;;;;;;22.02;54.42;101704.06;5052528;28;20039;-66
2022/06/24 10:28:06;;;;;;;9.48;2.78;;;;;;;21.75;54.51;101656.41;5050818;28;20504;-66
2022/06/24 10:30:40;;;;;;;7.22;3.35;;;;;;;22.10;54.55;101719.28;5052040;28;20037;-67
2022/06/24 10:33:16;;;;;;;8.82;4.78;;;;;;;21.96;54.58;101700.31;5052080;28;20040;-67
2022/06/24 10:35:55;;;;;;;4.13;2.38;;;;;;;22.13;54.64;101708.00;5052575;28;20051;-66
2022/06/24 10:38:23;;;;;;;2.95;2.03;;;;;;;22.08;54.45;101691.53;5052111;28;20064;-67
2022/06/24 10:40:50;;;;;;;4.53;2.03;;;;;;;22.24;54.24;101700.00;5051139;28;20090;-66
2022/06/24 10:43:42;;;;;;;4.93;3.15;;;;;;;22.35;54.15;101703.09;5051824;28;20087;-66
2022/06/24 10:46:12;;;;;;;8.82;3.38;;;;;;;22.41;53.72;101700.34;5050918;28;20052;-66
2022/06/24 10:48:44;;;;;;;7.07;2.92;;;;;;;22.56;53.69;101711.75;5052241;28;20048;-67
2022/06/24 10:51:21;;;;;;;4.93;2.45;;;;;;;22.50;52.32;101698.19;5050352;28;20036;-66
2022/06/24 10:54:02;;;;;;;4.07;2.80;;;;;;;22.38;52.29;101700.78;5050594;28;20124;-66
2022/06/24 10:56:40;;;;;;;6.85;2.88;;;;;;;22.13;52.83;101686.28;5052263;28;20515;-69
2022/06/24 10:59:06;;;;;;;8.55;3.42;;;;;;;22.14;52.98;101671.69;5052145;28;20575;-65
2022/06/24 11:01:32;;;;;;;6.18;3.40;;;;;;;22.40;53.07;101693.25;5050729;28;20025;-66
2022/06/24 11:04:03;;;;;;;5.80;2.88;;;;;;;22.42;52.51;101701.16;5050577;28;20091;-68
2022/06/24 11:06:28;;;;;;;4.85;3.25;;;;;;;22.27;53.26;101679.78;5051945;28;20037;-67
2022/06/24 11:08:54;;;;;;;7.07;2.80;;;;;;;22.33;53.31;101676.19;5051553;28;20111;-64
2022/06/24 11:11:30;;;;;;;6.40;2.22;;;;;;;21.69;52.66;101546.94;5051801;28;20504;-67
2022/06/24 11:13:56;;;;;;;7.22;2.97;;;;;;;22.63;51.35;101694.56;5051833;28;20033;-63
2022/06/24 11:16:25;;;;;;;12.52;3.45;;;;;;;22.52;51.97;101669.75;5051573;28;20094;-67
2022/06/24 11:18:51;;;;;;;6.28;2.58;;;;;;;22.52;51.96;101660.78;5051370;28;20552;-66
2022/06/24 11:21:19;;;;;;;7.03;2.60;;;;;;;22.71;52.57;101686.16;5050428;28;20123;-65
2022/06/24 11:23:54;;;;;;;5.10;2.78;;;;;;;22.77;52.43;101671.69;5050732;28;20060;-68
2022/06/24 11:26:20;;;;;;;8.93;3.60;;;;;;;22.88;52.27;101690.03;5051548;28;20071;-64
2022/06/24 11:28:55;;;;;;;9.65;3.28;;;;;;;22.88;51.66;101678.31;5051417;28;20068;-66
2022/06/24 11:31:28;;;;;;;7.72;2.85;;;;;;;22.94;51.56;101689.13;5051529;28;20431;-68
2022/06/24 11:34:05;;;;;;;6.10;2.63;;;;;;;22.83;52.12;101687.94;5051875;28;20516;-66
2022/06/24 11:36:32;;;;;;;5.40;2.90;;;;;;;22.78;51.94;101673.34;5050293;28;20083;-67
2022/06/24 11:39:01;;;;;;;5.32;2.58;;;;;;;22.94;52.33;101686.41;5051601;28;20037;-66
2022/06/24 11:41:45;;;;;;;6.55;3.42;;;;;;;22.76;52.27;101648.28;5051528;28;20033;-65